Time;durP1;ratioP1;P1;durP2;ratioP2;P2;SDS_P1;SDS_P2;PMS_P1;PMS_P2;Temp;Humidity;BMP_temperature;BMP_pressure;BME280_temperature;BME280_humidity;BME280_pressure;Samples;Min_cycle;Max_cycle;Signal;HPM_P1;HPM_P2
2023/03/25 00:00:20;;;;;;;4.30;3.67;;;16.00;55.20;;;;;;5075022;28;20475;-78
2023/03/25 00:02:49;;;;;;;3.08;2.78;;;16.00;55.20;;;;;;5074985;28;20198;-78
2023/03/25 00:05:16;;;;;;;3.45;2.97;;;16.00;55.20;;;;;;5056753;28;20025;-78
2023/03/25 00:07:43;;;;;;;5.97;3.90;;;16.00;55.30;;;;;;5075043;28;20028;-79
2023/03/25 00:10:10;;;;;;;4.43;3.40;;;16.00;55.30;;;;;;5074713;28;20482;-79
2023/03/25 00:12:36;;;;;;;4.20;3.28;;;16.00;55.30;;;;;;5075234;28;20028;-79
2023/03/25 00:15:01;;;;;;;5.28;3.80;;;15.90;55.30;;;;;;5075213;28;20351;-79
2023/03/25 00:17:30;;;;;;;5.57;3.65;;;16.00;55.40;;;;;;5074933;28;20027;-79
2023/03/25 00:19:56;;;;;;;3.80;3.40;;;15.90;55.30;;;;;;5074765;28;20036;-79
2023/03/25 00:22:22;;;;;;;4.45;3.75;;;15.90;55.30;;;;;;5056772;28;20082;-79
2023/03/25 00:24:48;;;;;;;3.97;3.33;;;15.90;55.40;;;;;;5074537;28;20035;-79
2023/03/25 00:27:18;;;;;;;4.03;3.33;;;15.90;55.50;;;;;;5074701;28;20024;-79
2023/03/25 00:29:44;;;;;;;4.07;3.13;;;15.90;55.40;;;;;;5074538;28;20036;-79
2023/03/25 00:32:12;;;;;;;5.45;3.78;;;15.90;55.50;;;;;;5074393;28;20028;-79
2023/03/25 00:34:45;;;;;;;4.90;3.90;;;15.80;55.40;;;;;;5074734;28;20084;-79
2023/03/25 00:37:16;;;;;;;4.68;3.67;;;15.90;55.50;;;;;;5074366;28;20056;-78
2023/03/25 00:39:42;;;;;;;4.65;3.20;;;15.80;55.50;;;;;;5056695;28;20079;-79
2023/03/25 00:42:10;;;;;;;4.90;3.65;;;15.90;55.60;;;;;;5074717;28;20101;-79
2023/03/25 00:44:35;;;;;;;4.80;3.67;;;15.80;55.50;;;;;;5074661;28;20032;-79
2023/03/25 00:47:01;;;;;;;5.13;3.60;;;15.80;55.50;;;;;;5074184;28;20358;-79
2023/03/25 00:49:27;;;;;;;4.10;3.20;;;15.80;55.50;;;;;;5074233;28;20107;-79
2023/03/25 00:51:55;;;;;;;3.92;3.47;;;15.80;55.60;;;;;;5073956;28;20449;-79
2023/03/25 00:54:21;;;;;;;5.70;3.85;;;15.80;55.50;;;;;;5056094;28;20024;-79
2023/03/25 00:56:47;;;;;;;4.55;3.53;;;15.80;55.50;;;;;;5074144;28;20025;-78
2023/03/25 00:59:14;;;;;;;4.55;3.50;;;15.80;55.50;;;;;;5073900;28;20032;-78
2023/03/25 01:01:40;;;;;;;5.53;3.95;;;15.80;55.50;;;;;;5074146;28;20035;-79
2023/03/25 01:04:11;;;;;;;4.60;3.88;;;15.80;55.50;;;;;;5073723;28;20415;-79
2023/03/25 01:06:42;;;;;;;3.88;3.35;;;15.70;55.50;;;;;;5074331;28;20024;-79
2023/03/25 01:09:09;;;;;;;3.95;3.55;;;15.80;55.60;;;;;;5074220;28;20032;-79
2023/03/25 01:11:37;;;;;;;3.97;3.47;;;15.70;55.50;;;;;;5073808;28;20048;-79
2023/03/25 01:14:06;;;;;;;4.95;3.97;;;15.80;55.60;;;;;;5073708;28;20028;-78
2023/03/25 01:16:32;;;;;;;4.03;3.38;;;15.70;55.50;;;;;;5054932;28;20351;-78
2023/03/25 01:18:58;;;;;;;5.07;3.97;;;15.70;55.50;;;;;;5055213;28;20043;-78
2023/03/25 01:21:23;;;;;;;4.60;4.10;;;15.70;55.50;;;;;;5073294;28;20025;-78
2023/03/25 01:23:49;;;;;;;4.63;3.95;;;15.70;55.50;;;;;;5055495;28;20025;-77
2023/03/25 01:26:15;;;;;;;4.78;4.07;;;15.70;55.50;;;;;;5073771;28;20025;-78
2023/03/25 01:28:42;;;;;;;6.10;3.70;;;15.70;55.50;;;;;;5073651;28;20379;-78
2023/03/25 01:31:11;;;;;;;4.13;3.72;;;15.70;55.50;;;;;;5073219;28;20081;-78
2023/03/25 01:33:37;;;;;;;4.28;3.53;;;15.70;55.50;;;;;;5073617;28;20033;-78
2023/03/25 01:36:08;;;;;;;4.85;3.95;;;15.70;55.50;;;;;;5073840;28;20139;-78
2023/03/25 01:38:37;;;;;;;4.65;3.45;;;15.70;55.50;;;;;;5073360;28;20455;-79
2023/03/25 01:41:04;;;;;;;4.40;3.70;;;15.70;55.50;;;;;;5073319;28;20419;-79
2023/03/25 01:43:30;;;;;;;4.97;3.95;;;15.70;55.50;;;;;;5073082;28;20047;-79
2023/03/25 01:45:56;;;;;;;4.18;3.60;;;15.60;55.40;;;;;;5072797;28;20474;-79
2023/03/25 01:48:31;;;;;;;4.45;4.03;;;15.70;55.50;;;;;;5073067;28;20036;-79
2023/03/25 01:51:23;;;;;;;4.20;3.67;;;15.70;55.50;;;;;;5073267;28;20051;-79
2023/03/25 01:53:52;;;;;;;4.55;3.50;;;15.60;55.40;;;;;;5073158;28;20021;-79
2023/03/25 01:56:22;;;;;;;3.90;3.38;;;15.60;55.40;;;;;;5072757;28;20028;-78
2023/03/25 01:58:50;;;;;;;4.40;3.50;;;15.60;55.40;;;;;;5073232;28;20033;-79
2023/03/25 02:01:20;;;;;;;3.72;3.30;;;15.60;55.40;;;;;;5073083;28;20091;-79
2023/03/25 02:03:49;;;;;;;3.47;3.10;;;15.60;55.30;;;;;;5054880;28;20408;-79
2023/03/25 02:06:27;;;;;;;4.25;3.60;;;15.60;55.30;;;;;;5038705;28;20451;-79
2023/03/25 02:08:55;;;;;;;4.78;3.65;;;15.60;55.30;;;;;;5072712;28;20032;-78
2023/03/25 02:11:24;;;;;;;5.53;4.00;;;15.60;55.20;;;;;;5073064;28;20401;-78
2023/03/25 02:13:50;;;;;;;4.50;3.72;;;15.60;55.20;;;;;;5073101;28;20081;-78
2023/03/25 02:16:29;;;;;;;4.15;3.28;;;15.60;55.20;;;;;;5072905;28;20339;-78
2023/03/25 02:19:01;;;;;;;3.97;3.47;;;15.60;55.10;;;;;;5072572;28;20462;-79
2023/03/25 02:21:35;;;;;;;4.72;3.20;;;15.60;55.10;;;;;;5072340;28;20079;-79
2023/03/25 02:24:06;;;;;;;;;;;15.60;55.20;;;;;;5073258;28;20371;-79
2023/03/25 02:27:13;;;;;;;4.10;3.13;;;15.50;55.00;;;;;;5072357;28;19931;-78
2023/03/25 02:30:05;;;;;;;3.30;2.90;;;15.60;55.00;;;;;;5054301;28;20134;-78
2023/03/25 02:32:45;;;;;;;3.55;3.03;;;15.50;54.90;;;;;;5054346;28;20098;-78
2023/03/25 02:35:29;;;;;;;3.92;3.20;;;15.60;54.90;;;;;;5072316;28;20067;-78
2023/03/25 02:38:16;;;;;;;4.72;3.38;;;15.50;54.80;;;;;;5072421;28;20391;-78
2023/03/25 02:40:51;;;;;;;4.90;3.80;;;15.50;54.80;;;;;;5055489;28;20037;-78
2023/03/25 02:43:36;;;;;;;;;;;15.50;54.80;;;;;;5072790;28;20029;-78
2023/03/25 02:46:06;;;;;;;;;;;15.50;54.70;;;;;;5072690;28;19995;-77
2023/03/25 02:48:39;;;;;;;3.25;2.95;;;15.50;54.70;;;;;;5072217;28;19991;-78
2023/03/25 02:51:30;;;;;;;3.85;3.05;;;15.50;54.70;;;;;;5072637;28;20397;-78
2023/03/25 02:54:01;;;;;;;3.95;3.42;;;15.50;54.60;;;;;;5072532;28;20115;-78
2023/03/25 02:56:28;;;;;;;4.15;3.40;;;15.40;54.60;;;;;;5072228;28;20044;-78
2023/03/25 02:58:55;;;;;;;3.88;3.00;;;15.50;54.70;;;;;;5071784;28;20358;-78
2023/03/25 03:01:25;;;;;;;4.72;3.70;;;15.50;54.70;;;;;;5072179;28;20112;-78
2023/03/25 03:03:54;;;;;;;4.18;3.35;;;15.50;54.60;;;;;;5072123;28;20038;-78
2023/03/25 03:06:21;;;;;;;4.43;3.70;;;15.40;54.50;;;;;;5071995;28;20450;-78
2023/03/25 03:08:49;;;;;;;5.65;3.75;;;15.40;54.50;;;;;;5054107;28;20389;-78
2023/03/25 03:11:30;;;;;;;4.05;3.63;;;15.40;54.50;;;;;;5072217;28;20459;-79
2023/03/25 03:14:02;;;;;;;3.90;3.25;;;15.40;54.40;;;;;;5072596;28;20040;-79
2023/03/25 03:16:47;;;;;;;4.35;3.63;;;15.40;54.40;;;;;;5072044;28;20078;-79
2023/03/25 03:19:20;;;;;;;4.85;3.45;;;15.40;54.30;;;;;;5071956;28;20390;-78
2023/03/25 03:22:16;;;;;;;3.97;3.30;;;15.40;54.40;;;;;;5072079;28;20025;-78
2023/03/25 03:24:52;;;;;;;4.03;3.50;;;15.40;54.20;;;;;;5071851;28;20482;-78
2023/03/25 03:27:31;;;;;;;4.43;3.47;;;15.40;54.20;;;;;;5054090;28;20039;-78
2023/03/25 03:30:03;;;;;;;4.25;3.45;;;15.40;54.20;;;;;;5071730;28;20032;-78
2023/03/25 03:32:48;;;;;;;3.88;3.28;;;15.40;54.20;;;;;;5071976;28;20090;-78
2023/03/25 03:35:41;;;;;;;4.55;3.35;;;15.40;54.20;;;;;;5071873;28;20049;-78
2023/03/25 03:38:13;;;;;;;4.63;3.40;;;15.30;54.00;;;;;;5071985;28;20081;-78
2023/03/25 03:40:44;;;;;;;3.85;3.35;;;15.30;54.10;;;;;;5075371;28;20490;-79
2023/03/25 03:43:16;;;;;;;4.25;3.47;;;15.30;54.10;;;;;;5075299;28;20475;-79
2023/03/25 03:45:50;;;;;;;3.40;3.10;;;15.30;54.00;;;;;;5075451;28;20241;-79
2023/03/25 03:48:28;;;;;;;3.28;2.97;;;15.30;54.00;;;;;;5057365;28;20078;-79
2023/03/25 03:50:59;;;;;;;4.20;3.08;;;15.30;54.00;;;;;;5075395;28;20059;-78
2023/03/25 03:53:40;;;;;;;4.68;3.35;;;15.30;54.00;;;;;;5075398;28;20051;-79
2023/03/25 03:56:18;;;;;;;4.35;3.20;;;15.30;53.90;;;;;;5075098;28;20095;-79
2023/03/25 03:58:45;;;;;;;5.15;3.53;;;15.30;53.90;;;;;;5057436;28;20032;-79
2023/03/25 04:01:44;;;;;;;4.28;3.40;;;15.30;53.90;;;;;;5075111;28;20029;-79
2023/03/25 04:04:14;;;;;;;3.83;3.10;;;15.30;53.70;;;;;;5075088;28;20346;-79
2023/03/25 04:07:13;;;;;;;4.95;3.75;;;15.30;53.80;;;;;;5057083;28;20025;-79
2023/03/25 04:10:05;;;;;;;3.05;2.75;;;15.30;53.70;;;;;;5074858;28;20485;-79
2023/03/25 04:12:36;;;;;;;4.25;3.47;;;15.30;53.70;;;;;;5007223;28;20139;-78
2023/03/25 04:15:05;;;;;;;4.38;3.45;;;15.30;53.70;;;;;;5057914;28;20028;-78
2023/03/25 04:17:34;;;;;;;3.20;2.90;;;15.30;53.70;;;;;;5074944;28;20084;-79
2023/03/25 04:20:00;;;;;;;3.60;2.92;;;15.30;53.70;;;;;;5074629;28;20104;-79
2023/03/25 04:22:26;;;;;;;4.72;3.47;;;15.30;53.70;;;;;;5074644;28;20050;-79
2023/03/25 04:24:53;;;;;;;3.65;3.20;;;15.30;53.70;;;;;;5074791;28;20028;-78
2023/03/25 04:27:21;;;;;;;4.15;3.67;;;15.30;53.70;;;;;;5074652;28;20432;-79
2023/03/25 04:29:48;;;;;;;4.40;3.50;;;15.30;53.70;;;;;;5074351;28;20115;-79
2023/03/25 04:32:15;;;;;;;3.20;2.90;;;15.30;53.70;;;;;;5074223;28;20445;-78
2023/03/25 04:34:41;;;;;;;5.80;4.13;;;15.30;53.70;;;;;;5058735;28;20056;-78
2023/03/25 04:37:06;;;;;;;3.65;3.15;;;15.30;53.70;;;;;;5074474;28;20035;-79
2023/03/25 04:39:32;;;;;;;4.10;3.55;;;15.40;53.70;;;;;;5074750;28;20028;-79
2023/03/25 04:42:02;;;;;;;4.03;3.40;;;15.30;53.60;;;;;;5074558;28;20063;-79
2023/03/25 04:44:39;;;;;;;3.90;3.38;;;15.40;53.60;;;;;;5072944;28;20033;-79
2023/03/25 04:47:06;;;;;;;4.45;3.53;;;15.30;53.50;;;;;;5074194;28;20028;-78
2023/03/25 04:49:32;;;;;;;4.95;3.67;;;15.40;53.60;;;;;;5073363;28;20436;-79
2023/03/25 04:52:01;;;;;;;3.78;3.38;;;15.40;53.60;;;;;;5073726;28;20103;-78
2023/03/25 04:54:27;;;;;;;4.25;3.47;;;15.40;53.60;;;;;;5074329;28;20130;-79
2023/03/25 04:56:52;;;;;;;6.13;4.13;;;15.40;53.50;;;;;;5074337;28;20028;-79
2023/03/25 04:59:20;;;;;;;4.20;3.63;;;15.40;53.50;;;;;;5074011;28;20032;-79
2023/03/25 05:01:46;;;;;;;4.60;4.03;;;15.40;53.50;;;;;;5072427;28;20025;-79
2023/03/25 05:04:16;;;;;;;4.13;3.53;;;15.40;53.50;;;;;;5074344;28;20043;-79
2023/03/25 05:06:44;;;;;;;4.38;3.67;;;15.50;53.50;;;;;;5073830;28;20028;-78
2023/03/25 05:09:17;;;;;;;5.13;4.13;;;15.50;53.50;;;;;;5073571;28;20099;-79
2023/03/25 05:11:44;;;;;;;4.28;3.72;;;15.50;53.50;;;;;;5073936;28;20028;-78
2023/03/25 05:14:11;;;;;;;4.88;3.90;;;15.60;53.50;;;;;;5073676;28;20123;-78
2023/03/25 05:16:36;;;;;;;6.10;3.88;;;15.60;53.50;;;;;;5073883;28;20107;-79
2023/03/25 05:19:03;;;;;;;5.22;4.20;;;15.60;53.40;;;;;;5073485;28;20196;-79
2023/03/25 05:21:30;;;;;;;5.60;4.07;;;15.70;53.40;;;;;;5073413;28;20032;-79
2023/03/25 05:23:57;;;;;;;7.13;4.40;;;15.70;53.40;;;;;;5073433;28;20055;-79
2023/03/25 05:26:24;;;;;;;4.18;3.78;;;15.70;53.40;;;;;;5073320;28;20028;-78
2023/03/25 05:28:50;;;;;;;4.60;3.80;;;15.80;53.30;;;;;;5073212;28;20103;-79
2023/03/25 05:31:16;;;;;;;5.82;4.65;;;15.80;53.30;;;;;;5073460;28;20247;-79
2023/03/25 05:33:42;;;;;;;4.82;3.92;;;15.80;53.30;;;;;;5073458;28;20055;-79
2023/03/25 05:36:12;;;;;;;5.72;4.50;;;15.80;53.20;;;;;;5073532;28;20127;-79
2023/03/25 05:38:42;;;;;;;4.72;4.20;;;15.90;53.30;;;;;;5073410;28;20036;-80
2023/03/25 05:41:10;;;;;;;5.72;4.72;;;15.90;53.20;;;;;;5072966;28;20036;-77
2023/03/25 05:43:39;;;;;;;5.57;4.47;;;16.00;53.20;;;;;;5073363;28;20025;-79
2023/03/25 05:46:05;;;;;;;4.97;4.30;;;16.00;53.20;;;;;;5072887;28;20115;-78
2023/03/25 05:48:31;;;;;;;5.35;4.50;;;16.10;53.20;;;;;;5073671;28;20067;-78
2023/03/25 05:51:05;;;;;;;5.45;4.53;;;16.10;53.20;;;;;;5073197;28;20025;-79
2023/03/25 05:53:32;;;;;;;5.88;4.38;;;16.10;53.10;;;;;;5072926;28;20020;-79
2023/03/25 05:55:58;;;;;;;5.85;4.50;;;16.20;53.20;;;;;;5073000;28;20063;-80
2023/03/25 05:58:24;;;;;;;5.97;4.93;;;16.20;53.10;;;;;;5072847;28;20600;-79
2023/03/25 06:00:50;;;;;;;5.60;4.90;;;16.30;53.10;;;;;;5072857;28;20064;-78
2023/03/25 06:03:19;;;;;;;5.35;4.40;;;16.30;53.10;;;;;;5072543;28;20406;-79
2023/03/25 06:05:45;;;;;;;5.15;4.30;;;16.30;53.00;;;;;;5072771;28;20331;-79
2023/03/25 06:08:11;;;;;;;6.53;4.80;;;16.30;53.00;;;;;;5072905;28;20039;-79
2023/03/25 06:10:37;;;;;;;6.63;5.05;;;16.40;53.00;;;;;;5072806;28;20107;-79
2023/03/25 06:13:03;;;;;;;6.00;4.82;;;16.40;53.10;;;;;;5073010;28;20020;-79
2023/03/25 06:15:32;;;;;;;5.93;5.18;;;16.40;53.00;;;;;;5072860;28;20032;-79
2023/03/25 06:17:58;;;;;;;6.70;5.20;;;16.50;53.00;;;;;;5072691;28;20111;-80
2023/03/25 06:20:24;;;;;;;6.45;5.07;;;16.50;53.00;;;;;;5072431;28;20055;-80
2023/03/25 06:22:50;;;;;;;6.60;5.50;;;16.50;53.00;;;;;;5072496;28;20541;-79
2023/03/25 06:25:19;;;;;;;5.90;4.82;;;16.60;53.00;;;;;;5072384;28;20056;-80
2023/03/25 06:27:48;;;;;;;5.72;4.80;;;16.50;53.00;;;;;;5072527;28;20467;-79
2023/03/25 06:30:19;;;;;;;7.13;5.50;;;16.50;52.90;;;;;;5072478;28;20082;-79
2023/03/25 06:32:49;;;;;;;6.15;4.90;;;16.60;53.00;;;;;;5054834;28;20070;-80
2023/03/25 06:35:18;;;;;;;5.80;4.97;;;16.60;53.00;;;;;;5073023;28;20052;-78
2023/03/25 06:37:46;;;;;;;6.05;4.82;;;16.60;53.00;;;;;;5072628;28;20025;-77
2023/03/25 06:40:12;;;;;;;5.60;4.57;;;16.50;53.00;;;;;;5072037;28;20041;-78
2023/03/25 06:42:40;;;;;;;5.72;4.93;;;16.60;53.10;;;;;;5072401;28;20085;-79
2023/03/25 06:45:07;;;;;;;5.20;4.57;;;16.50;53.10;;;;;;5072582;28;20052;-79
2023/03/25 06:47:33;;;;;;;6.40;5.13;;;16.50;53.20;;;;;;5054552;28;20040;-79
2023/03/25 06:49:59;;;;;;;6.05;4.78;;;16.50;53.20;;;;;;5072286;28;20025;-79
2023/03/25 06:52:24;;;;;;;6.72;5.57;;;16.50;53.30;;;;;;5072128;28;20032;-79
2023/03/25 06:54:50;;;;;;;7.35;5.07;;;16.50;53.40;;;;;;5072608;28;20020;-79
2023/03/25 06:57:16;;;;;;;6.78;5.32;;;16.40;53.40;;;;;;5072170;28;20132;-80
2023/03/25 06:59:41;;;;;;;8.50;6.35;;;16.40;53.50;;;;;;5072485;28;20036;-79
2023/03/25 07:02:12;;;;;;;5.82;4.70;;;16.50;53.60;;;;;;5072506;28;20036;-78
2023/03/25 07:04:38;;;;;;;6.28;4.90;;;16.50;53.70;;;;;;5072093;28;20050;-79
2023/03/25 07:07:03;;;;;;;6.75;5.57;;;16.50;53.70;;;;;;5072339;28;20025;-80
2023/03/25 07:09:29;;;;;;;6.88;5.65;;;16.50;53.70;;;;;;5072358;28;20348;-79
2023/03/25 07:11:55;;;;;;;5.35;4.78;;;16.60;53.70;;;;;;5072349;28;20095;-79
2023/03/25 07:14:20;;;;;;;7.07;5.05;;;16.70;53.70;;;;;;5074223;28;20077;-78
2023/03/25 07:16:46;;;;;;;6.80;4.97;;;16.70;53.60;;;;;;5076157;28;20496;-79
2023/03/25 07:19:12;;;;;;;6.15;5.05;;;16.80;53.60;;;;;;5075630;28;20032;-78
2023/03/25 07:21:37;;;;;;;6.47;5.10;;;16.90;53.60;;;;;;5075924;28;20089;-79
2023/03/25 07:24:03;;;;;;;5.57;4.88;;;17.00;53.60;;;;;;5076039;28;20138;-80
2023/03/25 07:26:29;;;;;;;5.80;4.72;;;17.10;53.60;;;;;;5075446;28;20035;-79
2023/03/25 07:28:54;;;;;;;5.88;5.22;;;17.10;53.50;;;;;;5075621;28;20032;-79
2023/03/25 07:31:20;;;;;;;5.75;5.05;;;17.10;53.50;;;;;;5075539;28;20020;-79
2023/03/25 07:33:46;;;;;;;7.60;6.03;;;17.10;53.40;;;;;;5075847;28;20059;-79
2023/03/25 07:36:13;;;;;;;5.80;5.20;;;17.20;53.50;;;;;;5072990;28;20118;-78
2023/03/25 07:38:38;;;;;;;6.55;5.35;;;17.20;53.50;;;;;;5075273;28;20485;-79
2023/03/25 07:41:10;;;;;;;6.22;5.50;;;17.20;53.60;;;;;;5075190;28;20037;-79
2023/03/25 07:43:36;;;;;;;8.00;5.93;;;17.20;53.60;;;;;;5075130;28;20092;-79
2023/03/25 07:46:02;;;;;;;6.28;4.93;;;17.20;53.60;;;;;;5075073;28;20463;-79
2023/03/25 07:48:27;;;;;;;6.32;5.03;;;17.20;53.60;;;;;;5075223;28;20095;-78
2023/03/25 07:50:53;;;;;;;6.30;5.22;;;17.30;53.70;;;;;;5075165;28;20039;-80
2023/03/25 07:53:19;;;;;;;5.97;5.32;;;17.30;53.60;;;;;;5075041;28;20378;-79
2023/03/25 07:55:45;;;;;;;6.93;6.22;;;17.40;53.60;;;;;;5075172;28;20048;-79
2023/03/25 07:58:11;;;;;;;6.20;5.15;;;17.40;53.60;;;;;;5074151;28;20107;-79
2023/03/25 08:00:37;;;;;;;7.05;5.38;;;17.40;53.50;;;;;;5075026;28;20111;-79
2023/03/25 08:03:03;;;;;;;6.72;5.88;;;17.40;53.50;;;;;;5075285;28;20059;-79
2023/03/25 08:05:30;;;;;;;6.70;5.40;;;17.40;53.50;;;;;;5075304;28;20025;-80
2023/03/25 08:07:59;;;;;;;6.10;5.40;;;17.40;53.60;;;;;;5075258;28;20052;-80
2023/03/25 08:10:25;;;;;;;6.85;5.97;;;17.40;53.50;;;;;;5074530;28;20111;-80
2023/03/25 08:12:52;;;;;;;6.97;5.97;;;17.40;53.60;;;;;;5074802;28;20027;-79
2023/03/25 08:15:19;;;;;;;7.65;5.68;;;17.40;53.60;;;;;;5074845;28;20540;-78
2023/03/25 08:17:45;;;;;;;7.53;6.15;;;17.40;53.60;;;;;;5074533;28;20130;-80
2023/03/25 08:20:12;;;;;;;6.70;5.30;;;17.50;53.60;;;;;;5074823;28;20121;-80
2023/03/25 08:22:37;;;;;;;5.93;5.28;;;17.40;53.60;;;;;;5074551;28;20028;-79
2023/03/25 08:25:03;;;;;;;6.75;5.43;;;17.50;53.60;;;;;;5074173;28;20382;-80
2023/03/25 08:27:29;;;;;;;6.25;5.63;;;17.50;53.60;;;;;;5073187;28;20123;-79
2023/03/25 08:29:56;;;;;;;6.15;5.47;;;17.50;53.60;;;;;;5074318;28;20431;-80
2023/03/25 08:32:26;;;;;;;6.20;5.50;;;17.50;53.60;;;;;;5074045;28;20067;-78
2023/03/25 08:34:53;;;;;;;6.70;5.70;;;17.50;53.60;;;;;;5074358;28;20095;-80
2023/03/25 08:37:20;;;;;;;5.85;5.22;;;17.50;53.60;;;;;;5074496;28;20038;-80
2023/03/25 08:39:48;;;;;;;7.47;6.53;;;17.50;53.60;;;;;;5074377;28;20035;-79
2023/03/25 08:42:15;;;;;;;6.05;4.97;;;17.60;53.60;;;;;;5074410;28;20107;-79
2023/03/25 08:44:40;;;;;;;6.15;5.38;;;17.60;53.60;;;;;;5073996;28;20090;-79
2023/03/25 08:47:06;;;;;;;6.57;5.35;;;17.60;53.60;;;;;;5056198;28;20032;-79
2023/03/25 08:49:32;;;;;;;5.57;4.93;;;17.60;53.60;;;;;;5074313;28;20354;-79
2023/03/25 08:52:00;;;;;;;6.22;5.10;;;17.60;53.60;;;;;;5074151;28;20528;-79
2023/03/25 08:54:26;;;;;;;6.32;4.88;;;17.60;53.60;;;;;;5073796;28;20359;-79
2023/03/25 08:56:52;;;;;;;5.18;4.43;;;17.60;53.60;;;;;;5074122;28;20210;-79
2023/03/25 08:59:18;;;;;;;6.13;4.90;;;17.60;53.50;;;;;;5073737;28;20450;-80
2023/03/25 09:01:44;;;;;;;5.95;4.43;;;17.70;53.60;;;;;;5073863;28;20032;-79
2023/03/25 09:04:10;;;;;;;4.95;4.40;;;17.70;53.60;;;;;;5073744;28;20029;-80
2023/03/25 09:06:36;;;;;;;7.63;5.60;;;17.70;53.50;;;;;;5055795;28;20029;-79
2023/03/25 09:09:04;;;;;;;5.63;4.78;;;17.70;53.50;;;;;;5073764;28;20324;-80
2023/03/25 09:11:33;;;;;;;5.85;5.10;;;17.80;53.50;;;;;;5073675;28;20028;-79
2023/03/25 09:14:03;;;;;;;6.00;5.05;;;17.90;53.50;;;;;;5073635;28;20031;-79
2023/03/25 09:16:30;;;;;;;5.57;4.85;;;17.90;53.40;;;;;;5073616;28;20044;-80
2023/03/25 09:18:56;;;;;;;5.28;4.78;;;18.00;53.40;;;;;;5073466;28;20028;-80
2023/03/25 09:21:22;;;;;;;5.10;4.60;;;18.00;53.30;;;;;;5073468;28;20113;-80
2023/03/25 09:23:47;;;;;;;5.05;4.43;;;18.10;53.40;;;;;;5073624;28;20449;-79
2023/03/25 09:26:13;;;;;;;5.22;4.50;;;18.10;53.30;;;;;;5073199;28;20055;-78
2023/03/25 09:28:39;;;;;;;6.38;5.28;;;18.20;53.40;;;;;;5073088;28;20103;-79
2023/03/25 09:31:05;;;;;;;4.82;4.20;;;18.20;53.30;;;;;;5073016;28;20033;-78
2023/03/25 09:33:30;;;;;;;4.70;4.20;;;18.30;53.30;;;;;;5073230;28;20386;-79
2023/03/25 09:35:56;;;;;;;6.15;4.40;;;18.30;53.20;;;;;;5072421;28;20059;-79
2023/03/25 09:38:22;;;;;;;7.13;4.57;;;18.40;53.20;;;;;;5073211;28;20036;-79
2023/03/25 09:40:48;;;;;;;6.97;4.80;;;18.40;53.10;;;;;;5073085;28;20451;-79
2023/03/25 09:43:19;;;;;;;5.63;4.47;;;18.50;53.00;;;;;;5072903;28;20052;-80
2023/03/25 09:45:47;;;;;;;6.32;4.63;;;18.50;52.90;;;;;;5055692;28;20101;-80
2023/03/25 09:48:37;;;;;;;5.80;5.07;;;18.60;52.90;;;;;;5073238;28;20120;-81
2023/03/25 09:51:28;;;;;;;5.28;4.63;;;18.60;52.70;;;;;;5073395;28;20476;-80
2023/03/25 09:54:02;;;;;;;5.97;4.75;;;18.70;52.60;;;;;;5072994;28;20096;-79
2023/03/25 09:56:33;;;;;;;5.63;4.32;;;18.70;52.60;;;;;;5072919;28;20459;-80
2023/03/25 09:59:04;;;;;;;5.50;5.00;;;18.70;52.60;;;;;;5072766;28;20035;-79
2023/03/25 10:01:37;;;;;;;6.65;4.57;;;18.80;52.60;;;;;;5072759;28;20028;-80
2023/03/25 10:04:18;;;;;;;7.07;5.70;;;18.80;52.50;;;;;;5073083;28;20108;-79
2023/03/25 10:07:16;;;;;;;5.47;4.70;;;18.90;52.50;;;;;;5072827;28;20413;-79
2023/03/25 10:10:19;;;;;;;6.40;5.43;;;18.90;52.40;;;;;;5072589;28;20063;-78
2023/03/25 10:13:33;;;;;;;6.15;4.90;;;18.90;52.40;;;;;;5073552;28;20024;-79
2023/03/25 10:16:14;;;;;;;5.97;5.38;;;18.90;52.20;;;;;;5065338;28;20037;-79
2023/03/25 10:19:18;;;;;;;6.32;5.43;;;19.00;52.40;;;;;;5054902;28;20428;-78
2023/03/25 10:21:59;;;;;;;5.38;4.80;;;18.90;52.20;;;;;;5072801;28;20476;-80
2023/03/25 10:24:38;;;;;;;7.53;5.38;;;19.00;52.30;;;;;;5072791;28;20101;-78
2023/03/25 10:27:11;;;;;;;7.43;5.22;;;19.00;52.30;;;;;;5072806;28;20024;-79
2023/03/25 10:30:03;;;;;;;6.45;5.32;;;19.00;52.30;;;;;;5072794;28;20035;-79
2023/03/25 10:32:49;;;;;;;5.65;4.45;;;19.10;52.40;;;;;;5004436;28;20116;-79
2023/03/25 10:35:28;;;;;;;5.72;4.88;;;19.10;52.30;;;;;;5071871;28;20048;-78
2023/03/25 10:37:59;;;;;;;5.55;4.40;;;19.10;52.20;;;;;;5072411;28;20111;-79
2023/03/25 10:40:37;;;;;;;6.32;5.30;;;19.10;52.20;;;;;;5072589;28;20032;-79
2023/03/25 10:43:33;;;;;;;6.95;4.43;;;19.10;52.10;;;;;;5054669;28;20090;-79
2023/03/25 10:46:16;;;;;;;4.82;4.30;;;19.10;52.10;;;;;;5072872;28;20081;-79
2023/03/25 10:48:44;;;;;;;5.55;4.55;;;19.10;52.20;;;;;;5075056;28;20028;-79
2023/03/25 10:51:11;;;;;;;6.25;4.75;;;19.00;52.20;;;;;;5058438;28;20036;-79
2023/03/25 10:53:38;;;;;;;5.88;4.50;;;19.00;52.40;;;;;;5076804;28;20031;-79
2023/03/25 10:56:06;;;;;;;7.57;4.78;;;19.10;52.40;;;;;;5076316;28;20066;-79
2023/03/25 10:58:34;;;;;;;8.18;4.55;;;19.00;52.30;;;;;;5076426;28;20029;-79
2023/03/25 11:01:12;;;;;;;6.25;4.95;;;19.10;52.40;;;;;;5076673;28;20040;-79
2023/03/25 11:03:39;;;;;;;5.38;4.30;;;19.10;52.30;;;;;;5077120;28;20021;-80
2023/03/25 11:06:06;;;;;;;6.45;4.50;;;19.20;52.40;;;;;;5059009;28;20078;-78
2023/03/25 11:08:32;;;;;;;6.50;4.70;;;19.20;52.20;;;;;;5076746;28;20033;-74
2023/03/25 11:10:59;;;;;;;6.30;4.65;;;19.20;52.10;;;;;;5076701;28;20066;-81
2023/03/25 11:13:29;;;;;;;6.18;4.07;;;19.20;52.10;;;;;;5076593;28;20371;-84
2023/03/25 11:16:00;;;;;;;5.72;3.78;;;19.30;52.10;;;;;;5076422;28;20024;-84
2023/03/25 11:18:29;;;;;;;4.90;4.28;;;19.40;52.00;;;;;;5093484;28;20024;-84
2023/03/25 11:21:14;;;;;;;4.90;4.05;;;19.40;51.90;;;;;;5096189;28;20051;-85
2023/03/25 11:23:48;;;;;;;5.60;4.10;;;19.40;51.90;;;;;;5078692;28;20027;-83
2023/03/25 11:26:32;;;;;;;;;;;19.40;51.80;;;;;;5097125;28;20020;-84
2023/03/25 11:29:06;;;;;;;5.18;3.63;;;19.40;51.60;;;;;;5077971;28;19927;-77
2023/03/25 11:31:40;;;;;;;5.10;3.90;;;19.40;51.80;;;;;;5096154;28;20055;-87
2023/03/25 11:34:12;;;;;;;;;;;19.40;51.80;;;;;;5099541;28;20115;-85
2023/03/25 11:36:51;;;;;;;3.88;3.10;;;19.40;51.60;;;;;;5116503;28;20285;-70
2023/03/25 11:39:34;;;;;;;3.72;3.13;;;19.40;51.70;;;;;;5116202;28;20118;-70
2023/03/25 11:42:13;;;;;;;3.38;3.08;;;19.50;52.00;;;;;;5116171;28;20198;-71
2023/03/25 11:44:39;;;;;;;6.03;3.45;;;19.50;52.10;;;;;;5098934;28;20035;-72
2023/03/25 11:47:09;;;;;;;3.97;3.58;;;19.60;52.10;;;;;;5098227;28;20020;-71
2023/03/25 11:49:37;;;;;;;4.15;3.58;;;19.70;52.10;;;;;;5098226;28;20035;-72
2023/03/25 11:52:19;;;;;;;4.32;3.35;;;19.70;52.10;;;;;;5098370;28;20027;-72
2023/03/25 11:54:45;;;;;;;4.20;3.20;;;19.80;52.10;;;;;;5098240;28;20055;-71
2023/03/25 11:57:21;;;;;;;10.23;4.15;;;19.80;52.00;;;;;;5116368;28;20115;-70
2023/03/25 11:59:48;;;;;;;6.55;3.08;;;19.90;52.00;;;;;;5115345;28;20059;-69
2023/03/25 12:02:25;;;;;;;5.15;3.70;;;20.00;51.90;;;;;;5097233;28;20032;-71
2023/03/25 12:05:07;;;;;;;4.38;3.50;;;20.00;51.80;;;;;;5115776;28;20106;-71
2023/03/25 12:07:47;;;;;;;4.93;3.53;;;20.10;51.60;;;;;;5116214;28;20114;-71
2023/03/25 12:10:34;;;;;;;7.35;4.05;;;20.10;51.30;;;;;;5097661;28;20032;-79
2023/03/25 12:13:15;;;;;;;6.10;3.80;;;20.20;51.30;;;;;;5097219;28;20030;-77
2023/03/25 12:15:56;;;;;;;5.57;3.45;;;20.30;51.00;;;;;;5114012;28;20023;-78
2023/03/25 12:18:58;;;;;;;5.55;3.70;;;20.40;50.90;;;;;;5115812;28;20031;-79
2023/03/25 12:21:38;;;;;;;3.70;3.22;;;20.40;50.30;;;;;;5115825;28;20081;-77
2023/03/25 12:24:39;;;;;;;5.30;3.42;;;20.40;50.20;;;;;;5097240;28;20035;-79
2023/03/25 12:27:26;;;;;;;4.90;3.47;;;20.40;49.80;;;;;;5115483;28;20031;-78
2023/03/25 12:30:10;;;;;;;5.43;3.85;;;20.40;49.80;;;;;;5115279;28;20032;-78
2023/03/25 12:32:55;;;;;;;3.70;3.22;;;20.40;50.10;;;;;;5115721;28;20027;-79
2023/03/25 12:35:32;;;;;;;6.57;3.58;;;20.40;50.00;;;;;;5115863;28;20115;-79
2023/03/25 12:38:15;;;;;;;5.68;4.00;;;20.40;50.00;;;;;;5115209;28;20024;-77
2023/03/25 12:41:11;;;;;;;5.47;4.07;;;20.50;50.00;;;;;;5096971;28;20036;-78
2023/03/25 12:44:00;;;;;;;4.57;3.40;;;20.50;49.70;;;;;;5115269;28;20041;-78
2023/03/25 12:46:54;;;;;;;6.75;3.95;;;20.60;49.90;;;;;;5115226;28;20130;-77
2023/03/25 12:49:44;;;;;;;5.53;3.97;;;20.60;49.60;;;;;;5115492;28;20031;-78
2023/03/25 12:52:35;;;;;;;4.43;3.67;;;20.70;49.70;;;;;;5115365;28;20027;-77
2023/03/25 12:55:45;;;;;;;6.68;3.92;;;20.70;49.20;;;;;;5115821;28;20024;-77
2023/03/25 12:58:16;;;;;;;3.92;3.38;;;20.70;49.10;;;;;;5089260;28;20035;-77
2023/03/25 13:00:46;;;;;;;4.43;3.90;;;20.70;49.30;;;;;;5115386;28;20039;-77
2023/03/25 13:03:30;;;;;;;5.72;4.28;;;20.70;49.30;;;;;;5115263;28;20454;-78
2023/03/25 13:06:05;;;;;;;6.32;3.83;;;20.70;49.10;;;;;;5115238;28;20473;-77
2023/03/25 13:08:57;;;;;;;4.40;3.67;;;20.70;49.40;;;;;;5114767;28;20028;-77
2023/03/25 13:11:34;;;;;;;5.32;3.80;;;20.60;49.10;;;;;;5108652;28;20542;-77